Time;durP1;ratioP1;P1;durP2;ratioP2;P2;SDS_P1;SDS_P2;PMS_P1;PMS_P2;Temp;Humidity;BMP_temperature;BMP_pressure;BME280_temperature;BME280_humidity;BME280_pressure;Samples;Min_cycle;Max_cycle;Signal;HPM_P1;HPM_P2
2023/03/05 00:00:18;;;;;;;2.03;1.52;;;18.30;31.80;;;;;;5073306;28;20673;-74
2023/03/05 00:02:45;;;;;;;2.60;1.77;;;18.20;31.70;;;;;;5072896;28;20187;-75
2023/03/05 00:05:12;;;;;;;3.13;1.52;;;18.20;31.70;;;;;;5073053;28;20214;-72
2023/03/05 00:07:40;;;;;;;2.58;1.55;;;18.20;31.80;;;;;;5073134;28;20229;-72
2023/03/05 00:10:10;;;;;;;2.72;1.55;;;18.20;31.80;;;;;;5073113;28;20218;-72
2023/03/05 00:12:37;;;;;;;2.63;1.50;;;18.20;31.80;;;;;;5073437;28;20628;-74
2023/03/05 00:15:06;;;;;;;2.33;1.58;;;18.20;31.80;;;;;;5072261;28;20219;-71
2023/03/05 00:17:33;;;;;;;2.40;1.45;;;18.20;31.90;;;;;;5071295;28;20260;-71
2023/03/05 00:20:00;;;;;;;2.45;1.55;;;18.20;31.80;;;;;;5072058;28;20244;-71
2023/03/05 00:22:27;;;;;;;1.58;1.38;;;18.20;31.90;;;;;;5072672;28;20248;-71
2023/03/05 00:24:54;;;;;;;2.38;1.45;;;18.20;31.90;;;;;;5072607;28;20227;-74
2023/03/05 00:27:23;;;;;;;2.03;1.30;;;18.20;31.90;;;;;;5072451;28;20629;-73
2023/03/05 00:29:50;;;;;;;1.90;1.40;;;18.20;31.90;;;;;;5071995;28;20195;-71
2023/03/05 00:32:17;;;;;;;4.05;1.80;;;18.10;31.80;;;;;;5072219;28;20671;-71
2023/03/05 00:34:44;;;;;;;1.70;1.52;;;18.10;31.90;;;;;;5072640;28;20645;-71
2023/03/05 00:37:11;;;;;;;2.67;1.65;;;18.10;31.90;;;;;;5072252;28;20260;-74
2023/03/05 00:39:39;;;;;;;2.25;1.60;;;18.20;32.00;;;;;;5072293;28;20236;-71
2023/03/05 00:42:06;;;;;;;2.35;1.58;;;18.10;31.90;;;;;;5072107;28;20268;-71
2023/03/05 00:44:35;;;;;;;2.10;1.50;;;18.10;31.90;;;;;;5071972;28;20268;-74
2023/03/05 00:47:03;;;;;;;2.17;1.58;;;18.10;31.90;;;;;;5072530;28;20861;-74
2023/03/05 00:49:30;;;;;;;3.88;1.52;;;18.10;31.90;;;;;;5072832;28;20715;-75
2023/03/05 00:51:58;;;;;;;1.80;1.40;;;18.10;32.00;;;;;;5071653;28;20267;-79
2023/03/05 00:54:25;;;;;;;3.08;1.75;;;18.10;32.00;;;;;;5072924;28;20191;-73
2023/03/05 00:56:52;;;;;;;4.38;1.70;;;18.10;32.00;;;;;;5072877;28;20627;-73
2023/03/05 00:59:19;;;;;;;2.05;1.42;;;18.10;32.10;;;;;;5073330;28;20206;-75
2023/03/05 01:01:48;;;;;;;2.55;1.45;;;18.10;32.10;;;;;;5072537;28;20717;-74
2023/03/05 01:04:16;;;;;;;2.95;1.58;;;18.10;32.10;;;;;;5072775;28;20264;-71
2023/03/05 01:06:45;;;;;;;2.58;1.40;;;18.10;32.10;;;;;;5073042;28;20218;-73
2023/03/05 01:09:12;;;;;;;2.45;1.45;;;18.10;32.10;;;;;;5072200;28;20195;-72
2023/03/05 01:11:39;;;;;;;1.90;1.50;;;18.10;32.10;;;;;;5073101;28;20218;-71
2023/03/05 01:14:06;;;;;;;2.40;1.77;;;18.00;32.10;;;;;;5072835;28;20183;-77
2023/03/05 01:16:34;;;;;;;3.05;1.90;;;18.00;32.10;;;;;;5072345;28;20707;-70
2023/03/05 01:19:03;;;;;;;2.08;1.52;;;18.00;32.10;;;;;;5072115;28;20711;-73
2023/03/05 01:21:30;;;;;;;2.20;1.60;;;18.00;32.10;;;;;;5069569;28;20711;-72
2023/03/05 01:23:57;;;;;;;2.05;1.50;;;18.00;32.10;;;;;;5072644;28;20559;-73
2023/03/05 01:26:25;;;;;;;2.25;1.48;;;18.00;32.20;;;;;;5073303;28;20211;-76
2023/03/05 01:28:52;;;;;;;2.08;1.60;;;18.00;32.10;;;;;;5076187;28;20236;-75
2023/03/05 01:31:19;;;;;;;3.00;1.73;;;18.00;32.20;;;;;;5075948;28;20279;-72
2023/03/05 01:33:47;;;;;;;2.75;1.80;;;18.00;32.20;;;;;;5076125;28;20236;-72
2023/03/05 01:36:16;;;;;;;2.17;1.90;;;17.90;32.10;;;;;;5076537;28;20219;-71
2023/03/05 01:38:44;;;;;;;5.93;2.08;;;17.90;32.10;;;;;;5076068;28;20198;-72
2023/03/05 01:41:14;;;;;;;2.60;1.98;;;17.90;32.20;;;;;;5076019;28;20244;-72
2023/03/05 01:43:42;;;;;;;3.13;1.88;;;17.90;32.20;;;;;;5076465;28;20214;-77
2023/03/05 01:46:37;;;;;;;2.28;1.80;;;17.90;32.20;;;;;;5077147;28;20762;-73
2023/03/05 01:49:10;;;;;;;3.45;1.95;;;18.00;32.30;;;;;;5076244;28;20191;-72
2023/03/05 01:51:42;;;;;;;2.28;1.80;;;17.90;32.20;;;;;;5076163;28;20218;-72
2023/03/05 01:54:11;;;;;;;3.70;2.50;;;17.90;32.20;;;;;;5076873;28;20248;-77
2023/03/05 01:56:40;;;;;;;2.72;2.00;;;17.90;32.20;;;;;;5076361;28;20260;-77
2023/03/05 01:59:08;;;;;;;3.55;2.65;;;17.90;32.30;;;;;;5075718;28;20701;-76
2023/03/05 02:01:40;;;;;;;3.35;2.00;;;17.90;32.30;;;;;;5076024;28;20264;-76
2023/03/05 02:04:09;;;;;;;3.78;2.00;;;17.90;32.30;;;;;;5076287;28;20218;-75
2023/03/05 02:06:39;;;;;;;4.68;2.20;;;17.90;32.30;;;;;;5076231;28;20322;-73
2023/03/05 02:09:06;;;;;;;3.03;2.20;;;17.90;33.00;;;;;;5075216;28;20710;-75
2023/03/05 02:11:34;;;;;;;4.32;2.00;;;17.90;32.40;;;;;;5075731;28;20911;-72
2023/03/05 02:14:02;;;;;;;3.40;2.10;;;17.90;32.40;;;;;;5074984;28;20190;-72
2023/03/05 02:16:35;;;;;;;3.47;2.42;;;17.80;32.30;;;;;;5076030;28;20215;-73
2023/03/05 02:19:03;;;;;;;6.55;3.00;;;17.90;32.40;;;;;;5075031;28;20191;-71
2023/03/05 02:21:40;;;;;;;2.90;2.40;;;17.80;32.40;;;;;;5075995;28;20284;-76
2023/03/05 02:24:11;;;;;;;3.50;2.50;;;17.80;32.40;;;;;;5075826;28;20214;-74
2023/03/05 02:26:39;;;;;;;3.72;2.38;;;17.80;33.10;;;;;;5075996;28;20318;-75
2023/03/05 02:29:09;;;;;;;4.00;2.70;;;17.80;32.40;;;;;;5075627;28;20603;-75
2023/03/05 02:31:37;;;;;;;3.63;2.28;;;17.80;32.40;;;;;;5075869;28;20218;-77
2023/03/05 02:34:06;;;;;;;4.80;2.20;;;17.80;32.40;;;;;;5075969;28;20187;-73
2023/03/05 02:36:34;;;;;;;3.60;2.88;;;17.80;32.40;;;;;;5076309;28;20240;-73
2023/03/05 02:39:02;;;;;;;3.95;2.78;;;17.80;32.50;;;;;;5074111;28;20228;-73
2023/03/05 02:41:30;;;;;;;4.65;2.80;;;17.80;32.50;;;;;;5075772;28;20211;-77
2023/03/05 02:43:57;;;;;;;3.70;2.88;;;17.80;32.50;;;;;;5074882;28;20223;-72
2023/03/05 02:46:24;;;;;;;3.83;2.75;;;17.80;32.50;;;;;;5076270;28;20241;-74
2023/03/05 02:48:51;;;;;;;2.75;2.30;;;17.80;32.50;;;;;;5075428;28;20647;-77
2023/03/05 02:51:19;;;;;;;3.65;2.67;;;17.80;32.60;;;;;;5075347;28;20344;-71
2023/03/05 02:53:47;;;;;;;4.47;2.85;;;17.80;32.60;;;;;;5074520;28;20183;-72
2023/03/05 02:56:15;;;;;;;3.40;2.83;;;17.80;32.60;;;;;;5074543;28;20252;-70
2023/03/05 02:58:42;;;;;;;4.15;2.88;;;17.80;32.60;;;;;;5074016;28;20699;-71
2023/03/05 03:01:10;;;;;;;3.45;2.40;;;17.80;32.60;;;;;;5074323;28;20215;-77
2023/03/05 03:03:38;;;;;;;4.10;2.83;;;17.80;32.70;;;;;;5074100;28;20183;-76
2023/03/05 03:06:06;;;;;;;3.55;2.60;;;17.80;32.70;;;;;;5073898;28;20246;-74
2023/03/05 03:08:33;;;;;;;5.93;2.67;;;17.80;32.70;;;;;;5074201;28;20228;-71
2023/03/05 03:11:07;;;;;;;4.45;3.03;;;17.80;32.70;;;;;;5074409;28;20218;-76
2023/03/05 03:13:35;;;;;;;3.42;2.78;;;17.70;32.60;;;;;;5074587;28;20248;-72
2023/03/05 03:16:03;;;;;;;4.45;3.20;;;17.80;32.70;;;;;;5074998;28;20222;-74
2023/03/05 03:18:31;;;;;;;3.70;2.92;;;17.80;32.70;;;;;;5075094;28;20191;-76
2023/03/05 03:20:58;;;;;;;2.90;2.60;;;17.70;32.70;;;;;;5073710;28;20231;-76
2023/03/05 03:23:26;;;;;;;4.03;2.78;;;17.70;32.70;;;;;;5074849;28;20199;-73
2023/03/05 03:25:53;;;;;;;3.20;2.83;;;17.70;32.70;;;;;;5074432;28;20230;-74
2023/03/05 03:28:22;;;;;;;5.47;3.20;;;17.70;32.70;;;;;;5074468;28;20652;-75
2023/03/05 03:30:50;;;;;;;4.32;2.65;;;17.70;32.70;;;;;;5074522;28;20218;-73
2023/03/05 03:33:17;;;;;;;3.88;2.63;;;17.70;32.70;;;;;;5074223;28;20227;-76
2023/03/05 03:35:44;;;;;;;4.22;2.88;;;17.70;32.80;;;;;;5074603;28;20245;-72
2023/03/05 03:38:12;;;;;;;4.30;3.08;;;17.70;32.80;;;;;;5074863;28;20190;-75
2023/03/05 03:40:40;;;;;;;4.55;3.15;;;17.70;32.80;;;;;;5074910;28;20758;-72
2023/03/05 03:43:08;;;;;;;4.03;2.47;;;17.70;32.80;;;;;;5072927;28;20194;-73
2023/03/05 03:45:40;;;;;;;3.20;2.85;;;17.70;32.90;;;;;;5074224;28;20227;-72
2023/03/05 03:48:08;;;;;;;4.43;2.85;;;17.70;32.90;;;;;;5074728;28;20229;-72
2023/03/05 03:50:38;;;;;;;4.10;2.85;;;17.60;32.70;;;;;;5075136;28;20222;-75
2023/03/05 03:53:05;;;;;;;4.90;3.03;;;17.70;32.90;;;;;;5073957;28;20195;-71
2023/03/05 03:55:32;;;;;;;2.97;2.58;;;17.70;32.90;;;;;;5074889;28;20738;-76
2023/03/05 03:58:00;;;;;;;5.05;3.22;;;17.70;32.90;;;;;;5074696;28;20187;-71
2023/03/05 04:00:28;;;;;;;4.82;2.75;;;17.70;32.90;;;;;;5074837;28;20183;-73
2023/03/05 04:02:57;;;;;;;4.82;3.17;;;17.70;32.90;;;;;;5074201;28;20252;-76
2023/03/05 04:05:24;;;;;;;4.88;3.00;;;17.70;32.90;;;;;;5073388;28;20218;-71
2023/03/05 04:07:51;;;;;;;4.50;3.20;;;17.60;32.80;;;;;;5074268;28;20198;-69
2023/03/05 04:10:19;;;;;;;4.25;2.97;;;17.60;32.80;;;;;;5073856;28;20187;-72
2023/03/05 04:12:46;;;;;;;3.70;2.80;;;17.60;32.80;;;;;;5073964;28;20664;-73
2023/03/05 04:15:13;;;;;;;3.65;3.00;;;17.60;32.80;;;;;;5073615;28;20220;-77
2023/03/05 04:17:40;;;;;;;3.33;2.80;;;17.60;32.80;;;;;;5073112;28;20633;-76
2023/03/05 04:20:11;;;;;;;6.35;3.25;;;17.70;32.90;;;;;;5074000;28;20226;-71
2023/03/05 04:22:38;;;;;;;4.10;3.10;;;17.60;32.90;;;;;;5074149;28;20218;-71
2023/03/05 04:25:07;;;;;;;6.88;2.97;;;17.60;32.90;;;;;;5073582;28;20280;-72
2023/03/05 04:27:36;;;;;;;4.25;2.83;;;17.60;32.90;;;;;;5073949;28;20206;-71
2023/03/05 04:30:04;;;;;;;3.60;2.65;;;17.60;32.90;;;;;;5073878;28;20201;-76
2023/03/05 04:32:31;;;;;;;6.07;3.10;;;17.60;32.90;;;;;;5074467;28;20214;-75
2023/03/05 04:34:58;;;;;;;4.53;3.08;;;17.60;32.90;;;;;;5073816;28;20187;-77
2023/03/05 04:37:28;;;;;;;4.10;2.97;;;17.60;32.90;;;;;;5074251;28;20214;-73
2023/03/05 04:39:55;;;;;;;4.57;2.90;;;17.60;33.00;;;;;;5072637;28;20657;-74
2023/03/05 04:42:23;;;;;;;3.60;2.92;;;17.60;33.00;;;;;;5073989;28;20214;-73
2023/03/05 04:44:50;;;;;;;6.80;3.20;;;17.60;33.00;;;;;;5074356;28;20215;-74
2023/03/05 04:47:19;;;;;;;3.72;2.88;;;17.60;33.00;;;;;;5073722;28;20211;-73
2023/03/05 04:49:46;;;;;;;5.50;3.33;;;17.60;33.00;;;;;;5074071;28;20233;-73
2023/03/05 04:52:14;;;;;;;3.67;3.05;;;17.60;33.00;;;;;;5074157;28;20223;-74
2023/03/05 04:54:44;;;;;;;4.25;2.92;;;17.60;33.10;;;;;;5074355;28;20183;-72
2023/03/05 04:57:11;;;;;;;4.45;3.50;;;17.60;33.10;;;;;;5074828;28;20793;-72
2023/03/05 04:59:39;;;;;;;4.07;3.05;;;17.50;33.00;;;;;;5074289;28;20598;-71
2023/03/05 05:02:06;;;;;;;4.53;3.28;;;17.60;33.10;;;;;;5077168;28;20210;-72
2023/03/05 05:04:34;;;;;;;6.93;3.72;;;17.50;33.00;;;;;;5077388;28;20700;-71
2023/03/05 05:07:01;;;;;;;4.68;3.30;;;17.50;33.70;;;;;;5078302;28;20210;-73
2023/03/05 05:09:29;;;;;;;3.88;2.90;;;17.50;33.00;;;;;;5077573;28;20291;-72
2023/03/05 05:11:57;;;;;;;4.75;3.10;;;17.50;33.00;;;;;;5078742;28;20218;-72
2023/03/05 05:14:25;;;;;;;4.03;3.05;;;17.60;33.20;;;;;;5078665;28;20191;-73
2023/03/05 05:16:52;;;;;;;5.88;3.60;;;17.50;33.10;;;;;;5077765;28;20214;-72
2023/03/05 05:19:20;;;;;;;3.35;3.03;;;17.60;33.20;;;;;;5076419;28;20190;-72
2023/03/05 05:21:47;;;;;;;3.75;3.05;;;17.50;33.10;;;;;;5076203;28;20303;-74
2023/03/05 05:24:14;;;;;;;5.75;3.35;;;17.50;33.10;;;;;;5076899;28;20676;-72
2023/03/05 05:26:41;;;;;;;5.22;3.15;;;17.50;33.10;;;;;;5077101;28;20703;-72
2023/03/05 05:29:10;;;;;;;3.35;2.90;;;17.50;33.20;;;;;;5076258;28;20198;-76
2023/03/05 05:31:38;;;;;;;4.18;3.38;;;17.50;33.20;;;;;;5075677;28;20264;-71
2023/03/05 05:34:05;;;;;;;4.75;3.58;;;17.50;33.20;;;;;;5076129;28;20213;-71
2023/03/05 05:36:32;;;;;;;5.00;3.30;;;17.50;33.20;;;;;;5076027;28;20268;-71
2023/03/05 05:38:59;;;;;;;4.15;3.35;;;17.50;33.20;;;;;;5073986;28;20187;-70
2023/03/05 05:41:27;;;;;;;5.22;3.35;;;17.50;33.20;;;;;;5074491;28;20219;-71
2023/03/05 05:43:54;;;;;;;5.63;3.78;;;17.50;33.20;;;;;;5074102;28;20260;-70
2023/03/05 05:46:23;;;;;;;4.75;3.55;;;17.50;33.20;;;;;;5074277;28;20230;-71
2023/03/05 05:48:51;;;;;;;5.80;3.60;;;17.50;33.20;;;;;;5073824;28;20187;-71
2023/03/05 05:51:20;;;;;;;4.60;3.35;;;17.50;33.20;;;;;;5073703;28;20214;-75
2023/03/05 05:53:48;;;;;;;4.90;3.80;;;17.50;33.20;;;;;;5075466;28;20183;-72
2023/03/05 05:56:16;;;;;;;7.10;3.35;;;17.50;33.30;;;;;;5076146;28;20223;-71
2023/03/05 05:58:45;;;;;;;5.32;3.50;;;17.50;33.30;;;;;;5076363;28;20197;-75
2023/03/05 06:01:15;;;;;;;4.57;3.20;;;17.50;33.30;;;;;;5076242;28;20215;-76
2023/03/05 06:03:43;;;;;;;4.85;3.53;;;17.50;33.30;;;;;;5075410;28;20191;-72
2023/03/05 06:06:11;;;;;;;5.70;3.45;;;17.50;33.30;;;;;;5075901;28;20234;-73
2023/03/05 06:08:39;;;;;;;4.80;3.85;;;17.50;33.40;;;;;;5075091;28;20381;-72
2023/03/05 06:11:06;;;;;;;5.63;3.97;;;17.50;33.30;;;;;;5073416;28;20272;-73
2023/03/05 06:13:34;;;;;;;6.60;3.58;;;17.50;33.40;;;;;;5074519;28;20245;-71
2023/03/05 06:16:03;;;;;;;5.35;3.83;;;17.50;33.40;;;;;;5075236;28;20214;-71
2023/03/05 06:18:31;;;;;;;4.80;3.83;;;17.40;33.30;;;;;;5075240;28;20237;-72
2023/03/05 06:21:01;;;;;;;4.95;3.22;;;17.50;33.40;;;;;;5074589;28;20227;-74
2023/03/05 06:23:29;;;;;;;4.05;3.65;;;17.40;33.30;;;;;;5074517;28;20228;-74
2023/03/05 06:25:59;;;;;;;4.90;3.65;;;17.40;33.30;;;;;;5074772;28;20276;-72
2023/03/05 06:28:28;;;;;;;5.32;3.40;;;17.50;33.40;;;;;;5073958;28;20190;-73
2023/03/05 06:31:01;;;;;;;4.15;3.70;;;17.40;33.30;;;;;;5073677;28;20214;-71
2023/03/05 06:33:28;;;;;;;5.32;3.67;;;17.40;33.30;;;;;;5073527;28;20248;-71
2023/03/05 06:35:56;;;;;;;4.70;3.53;;;17.40;33.30;;;;;;5073629;28;20210;-71
2023/03/05 06:38:25;;;;;;;5.95;4.28;;;17.40;33.30;;;;;;5073506;28;20187;-71
2023/03/05 06:40:52;;;;;;;6.25;3.67;;;17.40;33.40;;;;;;5073282;28;20260;-72
2023/03/05 06:43:19;;;;;;;4.10;3.30;;;17.50;33.50;;;;;;5073374;28;20229;-72
2023/03/05 06:45:47;;;;;;;4.30;3.58;;;17.40;33.40;;;;;;5071922;28;20280;-70
2023/03/05 06:48:14;;;;;;;4.35;3.50;;;17.40;33.30;;;;;;5072862;28;20264;-74
2023/03/05 06:50:41;;;;;;;3.70;3.20;;;17.40;33.30;;;;;;5073739;28;20187;-71
2023/03/05 06:53:08;;;;;;;6.78;4.20;;;17.40;33.30;;;;;;5073106;28;20233;-71
2023/03/05 06:55:39;;;;;;;6.13;3.53;;;17.40;33.30;;;;;;5073928;28;20284;-72
2023/03/05 06:58:07;;;;;;;5.75;3.72;;;17.50;33.50;;;;;;5073202;28;20256;-73
2023/03/05 07:00:35;;;;;;;5.07;3.17;;;17.40;33.30;;;;;;5073586;28;20278;-72
2023/03/05 07:03:02;;;;;;;5.53;3.63;;;17.50;33.50;;;;;;5073627;28;20187;-71
2023/03/05 07:05:30;;;;;;;4.72;3.60;;;17.40;33.40;;;;;;5073281;28;20256;-75
2023/03/05 07:07:57;;;;;;;4.88;4.00;;;17.40;33.40;;;;;;5073224;28;20573;-71
2023/03/05 07:10:24;;;;;;;5.35;3.90;;;17.40;33.40;;;;;;5073415;28;20236;-71
2023/03/05 07:12:53;;;;;;;4.60;3.60;;;17.40;33.40;;;;;;5072654;28;20222;-71
2023/03/05 07:15:20;;;;;;;4.95;3.53;;;17.40;33.40;;;;;;5072994;28;20198;-71
2023/03/05 07:17:47;;;;;;;5.75;3.22;;;17.40;33.50;;;;;;5073242;28;20210;-71
2023/03/05 07:20:14;;;;;;;4.60;3.53;;;17.40;33.50;;;;;;5073401;28;20769;-70
2023/03/05 07:22:42;;;;;;;5.32;3.22;;;17.40;33.50;;;;;;5073146;28;20256;-73
2023/03/05 07:25:09;;;;;;;4.60;3.55;;;17.40;33.50;;;;;;5071938;28;20252;-73
2023/03/05 07:27:37;;;;;;;5.55;3.65;;;17.40;33.50;;;;;;5071930;28;20645;-74
2023/03/05 07:30:08;;;;;;;4.13;3.40;;;17.30;33.40;;;;;;5072635;28;20187;-71
2023/03/05 07:32:36;;;;;;;5.53;3.58;;;17.40;34.10;;;;;;5072425;28;20356;-72
2023/03/05 07:35:03;;;;;;;6.20;3.30;;;17.30;33.50;;;;;;5071839;28;20560;-71
2023/03/05 07:37:30;;;;;;;4.55;3.28;;;17.30;33.40;;;;;;5072991;28;20272;-72
2023/03/05 07:39:58;;;;;;;5.03;3.70;;;17.40;33.50;;;;;;5073739;28;20249;-72
2023/03/05 07:42:25;;;;;;;4.57;3.45;;;17.40;33.50;;;;;;5073248;28;20644;-73
2023/03/05 07:44:52;;;;;;;4.45;3.30;;;17.30;33.50;;;;;;5073545;28;20186;-73
2023/03/05 07:47:22;;;;;;;5.00;3.33;;;17.30;33.40;;;;;;5072404;28;20238;-71
2023/03/05 07:49:49;;;;;;;4.45;3.22;;;17.30;33.50;;;;;;5073391;28;20191;-75
2023/03/05 07:52:16;;;;;;;4.78;3.38;;;17.30;33.50;;;;;;5073578;28;20280;-72
2023/03/05 07:54:43;;;;;;;4.78;3.47;;;17.40;33.50;;;;;;5072710;28;20616;-71
2023/03/05 07:57:12;;;;;;;4.75;3.33;;;17.40;33.50;;;;;;5072000;28;20280;-75
2023/03/05 07:59:39;;;;;;;5.15;3.40;;;17.30;33.50;;;;;;5070483;28;20191;-71
2023/03/05 08:02:08;;;;;;;6.32;3.42;;;17.30;33.50;;;;;;5072538;28;20254;-73
2023/03/05 08:04:37;;;;;;;4.88;3.20;;;17.30;33.40;;;;;;5073096;28;20191;-71
2023/03/05 08:07:05;;;;;;;6.70;3.40;;;17.30;33.50;;;;;;5071936;28;20696;-71
2023/03/05 08:09:32;;;;;;;4.50;3.50;;;17.30;33.50;;;;;;5072370;28;20225;-71
2023/03/05 08:11:59;;;;;;;7.25;3.72;;;17.30;33.50;;;;;;5073020;28;20214;-74
2023/03/05 08:14:27;;;;;;;4.97;3.20;;;17.30;33.50;;;;;;5073564;28;20194;-72
2023/03/05 08:16:54;;;;;;;5.47;3.13;;;17.30;33.50;;;;;;5073159;28;20214;-71
2023/03/05 08:19:22;;;;;;;6.05;3.30;;;17.30;33.50;;;;;;5071747;28;20716;-72
2023/03/05 08:21:51;;;;;;;5.22;3.10;;;17.30;33.50;;;;;;5072844;28;20643;-74
2023/03/05 08:24:19;;;;;;;3.72;3.20;;;17.30;33.50;;;;;;5072096;28;20195;-71
2023/03/05 08:26:47;;;;;;;4.55;3.53;;;17.30;33.50;;;;;;5072470;28;20238;-76
2023/03/05 08:29:14;;;;;;;5.05;3.40;;;17.30;33.50;;;;;;5071384;28;20676;-72
2023/03/05 08:31:46;;;;;;;5.72;3.72;;;17.30;33.50;;;;;;5072160;28;20219;-72
2023/03/05 08:34:13;;;;;;;4.97;3.38;;;17.30;33.50;;;;;;5072054;28;20193;-71
2023/03/05 08:36:41;;;;;;;4.22;3.50;;;17.30;33.50;;;;;;5071319;28;20660;-72
2023/03/05 08:39:14;;;;;;;6.80;3.40;;;17.30;33.50;;;;;;5071844;28;20198;-71
2023/03/05 08:41:41;;;;;;;5.15;3.25;;;17.30;33.50;;;;;;5071668;28;20218;-71
2023/03/05 08:44:09;;;;;;;5.53;3.08;;;17.30;33.50;;;;;;5072530;28;20187;-71
2023/03/05 08:46:38;;;;;;;4.45;2.97;;;17.20;33.50;;;;;;5072459;28;20238;-72
2023/03/05 08:49:07;;;;;;;5.28;3.03;;;17.20;33.50;;;;;;5072114;28;20237;-76
2023/03/05 08:51:35;;;;;;;5.00;2.95;;;17.30;33.50;;;;;;5072196;28;20215;-71
2023/03/05 08:54:05;;;;;;;4.65;2.95;;;17.20;33.50;;;;;;5070582;28;20191;-71
2023/03/05 08:56:34;;;;;;;3.88;3.05;;;17.30;33.50;;;;;;5070389;28;20207;-70
2023/03/05 08:59:03;;;;;;;4.93;3.00;;;17.20;33.50;;;;;;5070248;28;20268;-71
2023/03/05 09:01:30;;;;;;;5.20;3.33;;;17.30;33.50;;;;;;5070113;28;20268;-71
2023/03/05 09:03:58;;;;;;;5.38;3.10;;;17.30;33.50;;;;;;5070615;28;20237;-73
2023/03/05 09:06:26;;;;;;;4.72;3.20;;;17.20;33.50;;;;;;5069607;28;20238;-72
2023/03/05 09:08:54;;;;;;;3.92;3.03;;;17.20;33.50;;;;;;5071757;28;20240;-71
2023/03/05 09:11:22;;;;;;;5.53;3.35;;;17.20;33.50;;;;;;5071592;28;20276;-76
2023/03/05 09:13:52;;;;;;;5.07;3.45;;;17.20;33.50;;;;;;5073225;28;20194;-71
2023/03/05 09:16:20;;;;;;;5.10;3.05;;;17.20;33.50;;;;;;5072616;28;20264;-74
2023/03/05 09:18:48;;;;;;;5.45;3.42;;;17.20;33.50;;;;;;5071578;28;20197;-75
2023/03/05 09:21:17;;;;;;;4.75;2.90;;;17.20;33.60;;;;;;5071173;28;20319;-73
2023/03/05 09:23:45;;;;;;;4.00;2.63;;;17.20;33.50;;;;;;5073012;28;20202;-73
2023/03/05 09:26:14;;;;;;;5.07;2.42;;;17.20;33.60;;;;;;5072791;28;20230;-70
2023/03/05 09:28:42;;;;;;;6.75;3.30;;;17.10;33.50;;;;;;5071426;28;20183;-74
2023/03/05 09:31:11;;;;;;;7.78;3.70;;;17.20;33.60;;;;;;5071438;28;20222;-71
2023/03/05 09:33:39;;;;;;;3.55;3.00;;;17.20;33.60;;;;;;5071615;28;20187;-72
2023/03/05 09:36:16;;;;;;;4.18;2.92;;;17.10;33.50;;;;;;5072049;28;20661;-76
2023/03/05 09:38:43;;;;;;;4.85;2.88;;;17.20;33.60;;;;;;5071146;28;20252;-71
2023/03/05 09:41:17;;;;;;;4.65;2.95;;;17.10;33.50;;;;;;5070777;28;20219;-71
2023/03/05 09:43:53;;;;;;;4.18;2.80;;;17.10;33.60;;;;;;5070786;28;20190;-70
2023/03/05 09:46:34;;;;;;;4.07;2.67;;;17.20;33.60;;;;;;5070514;28;20226;-74
2023/03/05 09:49:12;;;;;;;3.88;2.88;;;17.10;33.60;;;;;;5073389;28;20186;-72
2023/03/05 09:51:41;;;;;;;4.25;2.95;;;17.20;33.60;;;;;;5073493;28;20218;-73
2023/03/05 09:54:14;;;;;;;3.80;3.10;;;17.10;33.60;;;;;;5074399;28;20672;-70
2023/03/05 09:56:45;;;;;;;4.03;3.15;;;17.10;33.60;;;;;;5074826;28;20711;-74
2023/03/05 09:59:26;;;;;;;5.00;3.15;;;17.10;33.60;;;;;;5074637;28;20187;-71
2023/03/05 10:01:59;;;;;;;5.57;3.50;;;17.10;33.60;;;;;;5074666;28;20301;-71
2023/03/05 10:04:29;;;;;;;5.13;3.30;;;17.10;33.60;;;;;;5075594;28;20190;-70
2023/03/05 10:07:00;;;;;;;4.78;3.25;;;17.10;33.60;;;;;;5074359;28;20233;-71
2023/03/05 10:09:43;;;;;;;5.10;3.25;;;17.10;33.60;;;;;;5074935;28;20191;-72
2023/03/05 10:12:19;;;;;;;4.88;3.47;;;17.10;33.60;;;;;;5074230;28;20218;-70
2023/03/05 10:14:47;;;;;;;6.55;3.17;;;17.10;33.60;;;;;;5075118;28;20233;-70
2023/03/05 10:17:45;;;;;;;6.60;3.08;;;17.10;33.60;;;;;;5074724;28;20264;-75
2023/03/05 10:20:55;;;;;;;4.28;3.15;;;17.10;33.60;;;;;;5074609;28;20226;-74
2023/03/05 10:23:29;;;;;;;4.68;3.05;;;17.10;33.60;;;;;;5074671;28;20187;-71
2023/03/05 10:26:08;;;;;;;4.97;3.05;;;17.10;33.60;;;;;;5075361;28;20722;-75
2023/03/05 10:28:43;;;;;;;6.28;2.85;;;17.10;33.60;;;;;;5075094;28;20205;-71
2023/03/05 10:31:40;;;;;;;7.22;3.67;;;17.10;33.60;;;;;;5074386;28;20183;-71
2023/03/05 10:37:16;;;;;;;4.22;2.90;;;17.10;33.60;;;;;;5151122;27;20571;-76
2023/03/05 10:39:59;;;;;;;4.80;3.38;;;17.10;33.60;;;;;;5151029;27;20598;-70
2023/03/05 10:42:34;;;;;;;4.70;3.03;;;17.10;33.60;;;;;;5151311;27;20211;-73
2023/03/05 10:45:09;;;;;;;6.32;2.97;;;17.10;33.60;;;;;;5151110;27;20696;-72
2023/03/05 10:47:45;;;;;;;4.75;3.15;;;17.10;33.60;;;;;;5150866;27;20685;-71
2023/03/05 10:50:18;;;;;;;5.03;3.20;;;17.00;33.50;;;;;;5152198;27;20664;-70
2023/03/05 10:52:52;;;;;;;5.88;3.33;;;17.10;33.60;;;;;;5151622;27;20216;-71
2023/03/05 10:55:21;;;;;;;6.15;3.55;;;17.10;33.60;;;;;;5151416;27;20216;-77
2023/03/05 10:57:49;;;;;;;6.57;3.42;;;17.00;33.40;;;;;;5151284;27;20595;-71
2023/03/05 11:00:20;;;;;;;7.38;3.47;;;17.10;33.50;;;;;;5150809;27;20209;-71
2023/03/05 11:02:56;;;;;;;4.10;3.15;;;17.00;33.50;;;;;;5151743;27;20214;-72
2023/03/05 11:05:46;;;;;;;5.78;3.67;;;17.00;33.50;;;;;;5152233;27;20315;-73
2023/03/05 11:08:25;;;;;;;6.05;3.78;;;17.00;33.40;;;;;;5151671;27;20219;-71
2023/03/05 11:11:11;;;;;;;6.30;3.90;;;17.00;33.40;;;;;;5150450;27;20184;-74
2023/03/05 11:13:50;;;;;;;5.40;3.60;;;17.00;33.50;;;;;;5149938;27;20184;-72
2023/03/05 11:16:20;;;;;;;6.00;3.38;;;17.00;33.40;;;;;;5150171;27;20242;-71
2023/03/05 11:18:47;;;;;;;5.53;3.72;;;17.00;33.50;;;;;;5149536;27;20184;-72
2023/03/05 11:21:22;;;;;;;6.03;3.78;;;17.00;33.50;;;;;;5150328;27;20184;-72
2023/03/05 11:24:12;;;;;;;4.90;3.85;;;17.00;33.50;;;;;;5150528;27;20191;-74
2023/03/05 11:26:47;;;;;;;5.38;4.05;;;17.00;33.50;;;;;;5151578;27;20212;-77
2023/03/05 11:29:22;;;;;;;5.78;3.65;;;17.00;33.40;;;;;;5151606;27;20183;-73
2023/03/05 11:31:50;;;;;;;4.68;3.60;;;17.00;33.50;;;;;;5151588;27;20215;-77
2023/03/05 11:34:34;;;;;;;4.90;3.30;;;17.00;33.40;;;;;;5152167;27;20187;-75
2023/03/05 11:37:05;;;;;;;5.05;3.70;;;17.00;33.40;;;;;;5150466;27;20604;-70
2023/03/05 11:39:37;;;;;;;5.70;3.72;;;16.90;33.30;;;;;;5148856;27;20223;-71
2023/03/05 11:42:09;;;;;;;8.00;4.03;;;17.00;33.40;;;;;;5150546;27;20243;-71
2023/03/05 11:44:45;;;;;;;5.85;3.70;;;17.00;33.40;;;;;;5150156;27;20649;-70
2023/03/05 11:47:21;;;;;;;6.50;4.10;;;17.00;33.40;;;;;;5143130;27;20605;-74
2023/03/05 11:49:51;;;;;;;5.70;3.58;;;17.00;33.40;;;;;;5137587;27;20184;-76
2023/03/05 11:52:23;;;;;;;4.70;3.65;;;16.90;33.30;;;;;;5137307;27;20212;-74
2023/03/05 11:54:59;;;;;;;4.60;3.70;;;16.90;33.30;;;;;;5136997;27;20856;-71
2023/03/05 11:57:29;;;;;;;5.18;3.95;;;16.90;33.30;;;;;;5136531;27;20456;-74
2023/03/05 11:59:59;;;;;;;7.07;3.83;;;16.90;33.30;;;;;;5137555;27;20681;-73
2023/03/05 12:02:27;;;;;;;5.78;3.53;;;16.90;33.30;;;;;;5136887;27;20212;-71
2023/03/05 12:04:58;;;;;;;5.22;3.80;;;16.90;33.30;;;;;;5135432;27;20189;-75
2023/03/05 12:07:34;;;;;;;4.97;3.92;;;16.90;33.30;;;;;;5135107;27;20208;-77
2023/03/05 12:10:04;;;;;;;7.30;3.97;;;16.90;33.30;;;;;;5135160;27;20184;-71
2023/03/05 12:12:39;;;;;;;5.47;3.75;;;16.90;33.30;;;;;;5135226;27;20220;-72
2023/03/05 12:15:26;;;;;;;7.10;4.00;;;16.90;33.30;;;;;;5134002;27;20730;-71
2023/03/05 12:18:03;;;;;;;5.38;3.63;;;16.90;33.30;;;;;;5134706;27;20204;-70
2023/03/05 12:20:37;;;;;;;5.30;3.97;;;16.90;33.20;;;;;;5134786;27;20188;-71
2023/03/05 12:23:05;;;;;;;5.53;3.78;;;16.90;33.30;;;;;;5133805;27;20215;-72
2023/03/05 12:25:45;;;;;;;4.82;3.70;;;16.90;33.20;;;;;;5134395;27;20215;-70
2023/03/05 12:28:15;;;;;;;5.68;4.00;;;16.80;33.20;;;;;;5134612;27;20798;-71
2023/03/05 12:30:58;;;;;;;6.35;4.00;;;16.90;33.90;;;;;;5134973;27;20181;-70
2023/03/05 12:33:36;;;;;;;6.10;3.65;;;16.90;33.30;;;;;;5134932;27;20246;-71
2023/03/05 12:36:37;;;;;;;4.55;3.90;;;16.90;33.30;;;;;;5134434;27;20277;-69
2023/03/05 12:39:48;;;;;;;7.15;4.05;;;16.90;33.20;;;;;;5136485;27;20204;-74
2023/03/05 12:42:52;;;;;;;6.70;3.90;;;16.90;33.30;;;;;;5136690;27;20223;-73
2023/03/05 12:45:31;;;;;;;4.45;3.67;;;16.90;33.20;;;;;;5134381;27;20184;-74
2023/03/05 12:48:36;;;;;;;6.78;3.83;;;16.80;33.20;;;;;;5136432;27;20758;-75
2023/03/05 12:51:04;;;;;;;6.40;3.88;;;16.80;33.10;;;;;;5136145;27;20193;-75
2023/03/05 12:53:31;;;;;;;6.20;4.50;;;16.80;33.10;;;;;;5136198;27;20261;-72
2023/03/05 12:56:02;;;;;;;6.72;4.10;;;16.80;33.10;;;;;;5136396;27;20208;-74
2023/03/05 12:58:39;;;;;;;6.40;3.65;;;16.80;33.10;;;;;;5136022;27;20756;-71
2023/03/05 13:01:27;;;;;;;5.40;3.67;;;16.80;33.10;;;;;;5135402;27;20180;-78
2023/03/05 13:03:58;;;;;;;6.82;4.22;;;16.80;33.20;;;;;;5136799;27;20276;-75
2023/03/05 13:06:28;;;;;;;5.38;4.00;;;16.80;33.10;;;;;;5136709;27;20191;-72